KVGT/VGT METAR and TAF weather

Enter ICAO airport designator
Station Type Date Time Source
KVGT METAR 2020/03/28 14:53 UTC NOAA

KVGT 281453Z 30004KT 10SM CLR 08/M05 A3013 RMK AO2 SLP219 T00831050 53017


Station Type Date Time Source
KVGT Decoded METAR 2020/03/28 14:53 UTC NOAA

NORTH LAS VEGAS, NV, United States (KVGT) 36-12N 115-11W
Mar 28, 2020 - 10:53 AM EDT / 2020.03.28 1453 UTC
Wind: from the WNW (300 degrees) at 5 MPH (4 KT):0
Visibility: 10 mile(s):0
Sky conditions: clear
Temperature: 46.9 F (8.3 C)
Dew Point: 23.0 F (-5.0 C)
Relative Humidity: 38%
Pressure (altimeter): 30.13 in. Hg (1020 hPa)
Pressure tendency: 0.05 inches (1.7 hPa) higher than three hours ago
ob: KVGT 281453Z 30004KT 10SM CLR 08/M05 A3013 RMK AO2 SLP219 T00831050 53017
cycle: 15

Station Type Date Time Source
KVGT TAF 2020/03/28 12:22 UTC NOAA

TAF KVGT 281120Z 2812/2912 32007KT P6SM SKC
FM281500 VRB05KT P6SM FEW150 SCT250
FM282000 15008KT P6SM FEW120 BKN150 BKN250
FM290200 19007KT P6SM BKN100 OVC150

Example: see airport list